createdAt,value
2023-04-08T00:01:19.607Z,73.34
2023-04-08T00:03:46.717Z,73.39
2023-04-08T00:06:13.735Z,73.08
2023-04-08T00:08:40.765Z,73.32
2023-04-08T00:11:07.646Z,73.61
2023-04-08T00:13:34.658Z,73.45
2023-04-08T00:16:01.722Z,73.19
2023-04-08T00:18:29.438Z,72.64
2023-04-08T00:20:57.396Z,72.32
2023-04-08T00:23:24.424Z,72.64
2023-04-08T00:25:51.518Z,73.07
2023-04-08T00:28:18.462Z,72.71
2023-04-08T00:30:45.841Z,72.80
2023-04-08T00:33:12.877Z,73.30
2023-04-08T00:35:39.875Z,73.58
2023-04-08T00:38:08.154Z,73.75
2023-04-08T00:40:35.278Z,74.10
2023-04-08T00:43:02.263Z,74.95
2023-04-08T00:45:29.355Z,74.81
2023-04-08T00:47:56.827Z,74.92
2023-04-08T00:50:24.368Z,75.49
2023-04-08T00:52:51.356Z,75.47
2023-04-08T00:55:18.302Z,76.24
2023-04-08T00:57:46.097Z,76.60
2023-04-08T01:00:13.979Z,76.21
2023-04-08T01:02:59.378Z,76.42
2023-04-08T01:05:38.943Z,76.18
2023-04-08T01:08:06.651Z,76.16
2023-04-08T01:10:34.652Z,76.05
2023-04-08T01:13:06.508Z,76.07
2023-04-08T01:15:33.619Z,76.23
2023-04-08T01:18:00.741Z,76.71
2023-04-08T01:20:28.922Z,76.74
2023-04-08T01:23:00.915Z,76.80
2023-04-08T01:25:32.295Z,77.11
2023-04-08T01:28:00.794Z,77.17
2023-04-08T01:30:28.610Z,77.30
2023-04-08T01:32:57.619Z,77.75
2023-04-08T01:35:24.641Z,77.85
2023-04-08T01:37:51.712Z,77.75
2023-04-08T01:40:19.096Z,77.93
2023-04-08T01:42:49.801Z,78.44
2023-04-08T01:45:17.103Z,78.28
2023-04-08T01:47:47.498Z,78.26
2023-04-08T01:50:15.643Z,78.65
2023-04-08T01:52:46.312Z,78.96
2023-04-08T01:55:14.338Z,78.76
2023-04-08T01:57:42.104Z,78.98
2023-04-08T02:00:10.322Z,78.88
2023-04-08T02:02:47.670Z,79.39
2023-04-08T02:05:15.103Z,79.45
2023-04-08T02:07:42.039Z,79.79
2023-04-08T02:10:09.852Z,79.69
2023-04-08T02:12:36.774Z,80.02
2023-04-08T02:15:09.085Z,79.91
2023-04-08T02:17:45.823Z,79.87
2023-04-08T02:20:24.394Z,79.89
2023-04-08T02:23:11.091Z,79.11
2023-04-08T02:25:39.034Z,79.19
2023-04-08T02:28:07.140Z,79.07
2023-04-08T02:30:34.265Z,79.20
2023-04-08T02:33:01.607Z,79.18
2023-04-08T02:35:28.556Z,78.63
2023-04-08T02:37:55.546Z,78.87
2023-04-08T02:40:29.712Z,79.20
2023-04-08T02:42:56.825Z,79.27
2023-04-08T02:45:28.228Z,79.81
2023-04-08T02:47:55.536Z,79.74
2023-04-08T02:50:22.704Z,80.00
2023-04-08T02:52:49.650Z,80.22
2023-04-08T02:55:19.819Z,79.98
2023-04-08T02:57:47.501Z,79.86
2023-04-08T03:00:15.053Z,79.32
2023-04-08T03:02:42.424Z,78.77
2023-04-08T03:05:12.631Z,78.11
2023-04-08T03:07:39.657Z,77.54
2023-04-08T03:10:07.279Z,77.33
2023-04-08T03:12:34.326Z,76.43
2023-04-08T03:15:01.917Z,76.20
2023-04-08T03:17:35.693Z,76.77
2023-04-08T03:20:05.037Z,76.86
2023-04-08T03:22:32.119Z,75.75
2023-04-08T03:24:59.104Z,75.90
2023-04-08T03:27:26.297Z,75.03
2023-04-08T03:29:53.418Z,73.98
2023-04-08T03:32:20.681Z,73.89
2023-04-08T03:34:49.730Z,73.81
2023-04-08T03:37:17.601Z,73.29
2023-04-08T03:39:44.488Z,73.22
2023-04-08T03:42:11.465Z,73.00
2023-04-08T03:44:38.458Z,72.99
2023-04-08T03:47:05.449Z,73.21
2023-04-08T03:49:32.364Z,73.40
2023-04-08T03:51:59.441Z,73.26
2023-04-08T03:54:26.401Z,73.34
2023-04-08T03:56:53.374Z,72.24
2023-04-08T03:59:20.495Z,71.98
2023-04-08T04:01:47.799Z,71.50
2023-04-08T04:04:15.069Z,71.12
2023-04-08T04:06:42.252Z,71.32
2023-04-08T04:09:09.302Z,70.56
2023-04-08T04:11:36.214Z,70.71
2023-04-08T04:14:03.616Z,70.12
2023-04-08T04:16:32.803Z,70.49
2023-04-08T04:19:00.390Z,70.50
2023-04-08T04:21:27.619Z,70.35
2023-04-08T04:23:54.567Z,69.46
2023-04-08T04:26:21.577Z,69.16
2023-04-08T04:28:49.252Z,68.11
2023-04-08T04:31:21.782Z,66.77
2023-04-08T04:33:49.219Z,66.08
2023-04-08T04:36:16.215Z,65.04
2023-04-08T04:38:43.571Z,64.66
2023-04-08T04:41:10.623Z,64.56
2023-04-08T04:43:37.951Z,63.94
2023-04-08T04:46:07.455Z,63.35
2023-04-08T04:48:35.357Z,63.62
2023-04-08T04:51:07.507Z,63.41
2023-04-08T04:53:34.582Z,63.29
2023-04-08T04:56:02.072Z,62.70
2023-04-08T04:58:29.727Z,61.59
2023-04-08T05:00:56.936Z,61.05
2023-04-08T05:03:24.087Z,61.46
2023-04-08T05:05:52.757Z,61.20
2023-04-08T05:08:20.156Z,60.72
2023-04-08T05:10:47.200Z,60.01
2023-04-08T05:13:14.129Z,59.93
2023-04-08T05:15:41.194Z,59.11
2023-04-08T05:18:08.319Z,58.46
2023-04-08T05:20:35.505Z,58.31
2023-04-08T05:23:02.500Z,58.96
2023-04-08T05:25:30.724Z,57.99
2023-04-08T05:27:57.755Z,57.98
2023-04-08T05:30:24.777Z,57.42
2023-04-08T05:32:51.925Z,57.18
2023-04-08T05:35:18.988Z,57.01
2023-04-08T05:37:45.887Z,56.62
2023-04-08T05:40:12.880Z,55.95
2023-04-08T05:42:39.808Z,55.76
2023-04-08T05:45:07.347Z,55.18
2023-04-08T05:47:34.350Z,55.19
2023-04-08T05:50:01.355Z,54.65
2023-04-08T05:52:28.485Z,54.40
2023-04-08T05:54:55.536Z,53.87
2023-04-08T05:57:22.364Z,53.82
2023-04-08T05:59:49.320Z,52.81
2023-04-08T06:02:16.351Z,52.37
2023-04-08T06:04:43.640Z,51.89
2023-04-08T06:07:11.076Z,52.40
2023-04-08T06:09:38.191Z,51.91
2023-04-08T06:12:05.471Z,52.45
2023-04-08T06:14:32.673Z,51.93
2023-04-08T06:16:59.881Z,50.77
2023-04-08T06:19:26.984Z,51.54
2023-04-08T06:21:58.836Z,51.16
2023-04-08T06:24:27.492Z,50.27
2023-04-08T06:26:54.461Z,50.68
2023-04-08T06:29:24.437Z,50.49
2023-04-08T06:31:51.607Z,51.62
2023-04-08T06:34:18.710Z,50.25
2023-04-08T06:36:45.773Z,50.02
2023-04-08T06:39:13.124Z,50.91
2023-04-08T06:41:40.151Z,50.88
2023-04-08T06:44:19.825Z,50.03
2023-04-08T06:46:46.944Z,49.37
2023-04-08T06:49:13.993Z,49.76
2023-04-08T06:51:41.002Z,49.50
2023-04-08T06:54:10.163Z,48.62
2023-04-08T06:56:37.578Z,49.16
2023-04-08T06:59:07.158Z,48.72
2023-04-08T07:01:34.441Z,49.04
2023-04-08T07:04:02.572Z,49.40
2023-04-08T07:06:29.573Z,49.24
2023-04-08T07:08:56.486Z,49.24
2023-04-08T07:11:23.456Z,48.80
2023-04-08T07:13:50.837Z,47.10
2023-04-08T07:16:17.877Z,46.70
2023-04-08T07:18:44.967Z,46.14
2023-04-08T07:21:12.736Z,47.20
2023-04-08T07:23:39.745Z,47.82
2023-04-08T07:26:06.785Z,47.10
2023-04-08T07:28:33.705Z,45.63
2023-04-08T07:31:10.546Z,45.11
2023-04-08T07:33:37.399Z,44.22
2023-04-08T07:36:04.467Z,44.09
2023-04-08T07:38:31.690Z,43.25
2023-04-08T07:40:58.672Z,42.72
2023-04-08T07:43:25.742Z,42.49
2023-04-08T07:45:52.905Z,41.58
2023-04-08T07:48:19.890Z,41.69
2023-04-08T07:51:09.255Z,41.55
2023-04-08T07:53:34.576Z,41.56
2023-04-08T07:56:01.691Z,41.77
2023-04-08T07:58:28.898Z,41.77
2023-04-08T08:00:57.707Z,41.16
2023-04-08T08:03:25.719Z,40.42
2023-04-08T08:05:54.205Z,41.38
2023-04-08T08:08:21.386Z,40.68
2023-04-08T08:10:48.218Z,41.19
2023-04-08T08:13:17.340Z,41.29
2023-04-08T08:15:44.401Z,40.39
2023-04-08T08:18:11.581Z,39.92
2023-04-08T08:20:38.688Z,39.94
2023-04-08T08:23:05.670Z,39.85
2023-04-08T08:25:32.578Z,40.25
2023-04-08T08:27:59.454Z,39.76
2023-04-08T08:30:27.130Z,40.22
2023-04-08T08:32:54.252Z,40.56
2023-04-08T08:35:21.211Z,40.29
2023-04-08T08:37:48.287Z,39.77
2023-04-08T08:40:15.943Z,39.51
2023-04-08T08:42:43.087Z,39.29
2023-04-08T08:45:10.449Z,39.84
2023-04-08T08:47:37.375Z,41.08
2023-04-08T08:50:05.205Z,40.10
2023-04-08T08:52:32.255Z,40.15
2023-04-08T08:54:59.431Z,39.89
2023-04-08T08:57:27.217Z,39.26
2023-04-08T08:59:54.356Z,39.28
2023-04-08T09:02:29.030Z,39.78
2023-04-08T09:04:58.280Z,40.15
2023-04-08T09:07:26.859Z,39.46
2023-04-08T09:09:54.556Z,39.81
2023-04-08T09:12:21.628Z,39.98
2023-04-08T09:14:48.644Z,39.38
2023-04-08T09:17:16.397Z,38.82
2023-04-08T09:20:12.251Z,38.17
2023-04-08T09:23:02.707Z,37.83
2023-04-08T09:25:32.269Z,38.75
2023-04-08T09:27:59.706Z,39.28
2023-04-08T09:30:27.549Z,39.61
2023-04-08T09:32:56.524Z,39.20
2023-04-08T09:35:24.160Z,39.17
2023-04-08T09:37:51.315Z,39.09
2023-04-08T09:40:18.447Z,38.48
2023-04-08T09:42:48.762Z,38.24
2023-04-08T09:45:16.261Z,38.22
2023-04-08T09:47:50.561Z,37.65
2023-04-08T09:50:17.626Z,36.11
2023-04-08T09:52:45.642Z,35.36
2023-04-08T09:55:13.350Z,35.80
2023-04-08T09:58:02.271Z,36.48
2023-04-08T10:00:32.537Z,36.32
2023-04-08T10:03:08.387Z,35.47
2023-04-08T10:05:39.744Z,35.24
2023-04-08T10:08:07.100Z,34.71
2023-04-08T10:10:39.629Z,35.05
2023-04-08T10:13:07.193Z,34.96
2023-04-08T10:15:34.900Z,35.02
2023-04-08T10:18:07.943Z,34.18
2023-04-08T10:20:35.165Z,34.43
2023-04-08T10:23:02.710Z,34.66
2023-04-08T10:25:32.729Z,34.47
2023-04-08T10:28:00.738Z,34.20
2023-04-08T10:30:27.734Z,34.63
2023-04-08T10:32:56.951Z,34.01
2023-04-08T10:35:30.539Z,33.23
2023-04-08T10:37:58.608Z,32.78
2023-04-08T10:40:25.836Z,32.93
2023-04-08T10:42:58.605Z,34.02
2023-04-08T10:45:25.669Z,33.88
2023-04-08T10:47:52.657Z,34.42
2023-04-08T10:50:20.125Z,34.52
2023-04-08T10:52:50.976Z,34.90
2023-04-08T10:55:27.448Z,35.18
2023-04-08T10:57:55.860Z,35.10
2023-04-08T11:00:38.291Z,34.92
2023-04-08T11:03:06.711Z,34.43
2023-04-08T11:05:34.517Z,35.31
2023-04-08T11:08:01.666Z,34.88
2023-04-08T11:10:32.082Z,33.80
2023-04-08T11:12:59.032Z,33.78
2023-04-08T11:15:26.340Z,33.89
2023-04-08T11:17:56.633Z,33.64
2023-04-08T11:20:23.699Z,33.02
2023-04-08T11:22:50.829Z,33.36
2023-04-08T11:25:17.752Z,32.64
2023-04-08T11:27:45.113Z,32.98
2023-04-08T11:30:12.320Z,33.14
2023-04-08T11:32:39.295Z,33.99
2023-04-08T11:35:06.468Z,32.19
2023-04-08T11:37:40.500Z,33.27
2023-04-08T11:40:11.689Z,33.54
2023-04-08T11:42:39.989Z,33.21
2023-04-08T11:45:11.098Z,33.36
2023-04-08T11:47:38.088Z,33.75
2023-04-08T11:50:05.461Z,32.84
2023-04-08T11:52:48.652Z,32.34
2023-04-08T11:55:25.533Z,32.62
2023-04-08T11:57:52.876Z,32.17
2023-04-08T12:00:20.352Z,32.93
2023-04-08T12:02:48.172Z,32.79
2023-04-08T12:05:16.148Z,33.40
2023-04-08T12:07:43.406Z,33.82
2023-04-08T12:10:11.491Z,33.95
2023-04-08T12:12:39.131Z,34.07
2023-04-08T12:15:06.911Z,34.25
2023-04-08T12:17:34.043Z,33.81
2023-04-08T12:20:01.646Z,33.96
2023-04-08T12:22:30.384Z,34.03
2023-04-08T12:24:59.238Z,34.37
2023-04-08T12:27:26.505Z,34.07
2023-04-08T12:29:53.630Z,33.96
2023-04-08T12:32:20.732Z,33.92
2023-04-08T12:34:47.744Z,34.60
2023-04-08T12:37:14.649Z,34.81
2023-04-08T12:39:42.080Z,34.47
2023-04-08T12:42:09.247Z,34.70
2023-04-08T12:44:36.219Z,34.59
2023-04-08T12:47:03.207Z,34.50
2023-04-08T12:49:30.910Z,34.55
2023-04-08T12:52:01.425Z,34.37
2023-04-08T12:54:28.561Z,34.45
2023-04-08T12:56:57.071Z,34.32
2023-04-08T12:59:24.150Z,34.29
2023-04-08T13:01:54.291Z,34.85
2023-04-08T13:04:21.528Z,34.71
2023-04-08T13:06:48.587Z,34.28
2023-04-08T13:09:15.673Z,34.16
2023-04-08T13:11:42.524Z,34.46
2023-04-08T13:14:09.466Z,34.57
2023-04-08T13:16:37.300Z,34.37
2023-04-08T13:19:04.261Z,33.96
2023-04-08T13:21:31.743Z,34.07
2023-04-08T13:23:58.699Z,33.82
2023-04-08T13:26:26.672Z,33.71
2023-04-08T13:28:57.345Z,33.78
2023-04-08T13:31:25.539Z,34.09
2023-04-08T13:33:54.569Z,34.41
2023-04-08T13:36:23.411Z,34.23
2023-04-08T13:38:50.658Z,34.54
2023-04-08T13:41:17.917Z,34.73
2023-04-08T13:43:44.879Z,34.71
2023-04-08T13:46:11.961Z,34.72
2023-04-08T13:48:38.880Z,34.86
2023-04-08T13:51:05.848Z,34.83
2023-04-08T13:53:32.830Z,34.96
2023-04-08T13:55:59.877Z,35.09
2023-04-08T13:58:27.235Z,35.70
2023-04-08T14:00:54.381Z,35.49
2023-04-08T14:03:21.556Z,35.66
2023-04-08T14:05:49.121Z,35.53
2023-04-08T14:08:16.163Z,35.89
2023-04-08T14:10:43.035Z,36.04
2023-04-08T14:13:10.088Z,36.18
2023-04-08T14:15:37.055Z,35.84
2023-04-08T14:18:04.070Z,36.03
2023-04-08T14:20:31.319Z,35.99
2023-04-08T14:22:58.306Z,36.40
2023-04-08T14:25:25.843Z,36.49
2023-04-08T14:27:58.465Z,37.26
2023-04-08T14:30:27.244Z,37.47
2023-04-08T14:32:54.955Z,37.68
2023-04-08T14:35:22.118Z,37.62
2023-04-08T14:37:49.082Z,37.49
2023-04-08T14:40:16.052Z,37.64
2023-04-08T14:42:44.548Z,38.26
2023-04-08T14:45:11.602Z,38.12
2023-04-08T14:47:38.630Z,38.77
2023-04-08T14:50:06.306Z,38.29
2023-04-08T14:52:33.222Z,39.07
2023-04-08T14:55:00.513Z,38.58
2023-04-08T14:57:27.451Z,38.65
2023-04-08T14:59:54.522Z,39.09
2023-04-08T15:02:21.548Z,39.01
2023-04-08T15:04:48.497Z,38.99
2023-04-08T15:07:15.833Z,38.75
2023-04-08T15:09:42.721Z,38.71
2023-04-08T15:12:09.639Z,39.01
2023-04-08T15:14:36.656Z,39.10
2023-04-08T15:17:03.699Z,39.56
2023-04-08T15:19:30.750Z,39.84
2023-04-08T15:21:57.784Z,40.33
2023-04-08T15:24:24.756Z,40.06
2023-04-08T15:26:51.776Z,40.11
2023-04-08T15:29:18.617Z,40.09
2023-04-08T15:31:45.913Z,40.02
2023-04-08T15:34:12.920Z,40.27
2023-04-08T15:36:39.983Z,40.94
2023-04-08T15:39:07.049Z,40.78
2023-04-08T15:41:33.926Z,41.60
2023-04-08T15:44:01.134Z,41.10
2023-04-08T15:46:28.023Z,41.22
2023-04-08T15:48:55.204Z,41.19
2023-04-08T15:51:22.370Z,41.38
2023-04-08T15:53:51.576Z,41.46
2023-04-08T15:56:18.792Z,41.45
2023-04-08T15:58:46.217Z,41.89
2023-04-08T16:01:13.488Z,42.99
2023-04-08T16:03:41.124Z,42.72
2023-04-08T16:06:08.713Z,42.68
2023-04-08T16:08:35.805Z,42.87
2023-04-08T16:11:04.025Z,43.13
2023-04-08T16:13:31.024Z,43.25
2023-04-08T16:15:58.726Z,43.54
2023-04-08T16:18:26.117Z,43.60
2023-04-08T16:20:53.325Z,43.83
2023-04-08T16:23:20.661Z,43.52
2023-04-08T16:25:47.673Z,43.50
2023-04-08T16:28:14.657Z,43.42
2023-04-08T16:30:44.419Z,43.65
2023-04-08T16:33:11.515Z,44.01
2023-04-08T16:35:38.687Z,44.74
2023-04-08T16:38:06.311Z,45.79
2023-04-08T16:40:33.708Z,45.71
2023-04-08T16:43:01.280Z,45.69
2023-04-08T16:45:29.601Z,45.72
2023-04-08T16:47:57.020Z,45.14
2023-04-08T16:50:24.146Z,44.89
2023-04-08T16:52:51.156Z,44.76
2023-04-08T16:55:18.370Z,44.57
2023-04-08T16:57:45.758Z,44.55
2023-04-08T17:00:13.210Z,44.82
2023-04-08T17:02:40.513Z,45.18
2023-04-08T17:05:08.142Z,45.67
2023-04-08T17:07:35.123Z,45.37
2023-04-08T17:10:02.292Z,45.27
2023-04-08T17:12:30.491Z,45.05
2023-04-08T17:14:57.417Z,45.02
2023-04-08T17:17:24.418Z,45.76
2023-04-08T17:19:51.992Z,45.51
2023-04-08T17:22:18.968Z,45.82
2023-04-08T17:24:47.870Z,46.68
2023-04-08T17:27:15.157Z,46.47
2023-04-08T17:29:42.096Z,46.66
2023-04-08T17:32:09.192Z,46.42
2023-04-08T17:34:37.102Z,46.44
2023-04-08T17:37:05.356Z,46.74
2023-04-08T17:39:32.422Z,46.90
2023-04-08T17:41:59.528Z,47.44
2023-04-08T17:44:30.050Z,47.74
2023-04-08T17:46:57.444Z,47.42
2023-04-08T17:49:24.513Z,47.88
2023-04-08T17:51:51.489Z,48.02
2023-04-08T17:54:18.527Z,47.78
2023-04-08T17:56:46.691Z,48.01
2023-04-08T17:59:15.418Z,48.00
2023-04-08T18:01:42.490Z,48.38
2023-04-08T18:04:10.568Z,48.51
2023-04-08T18:06:37.645Z,49.05
2023-04-08T18:09:04.718Z,49.20
2023-04-08T18:11:31.749Z,49.37
2023-04-08T18:13:58.819Z,49.55
2023-04-08T18:16:25.762Z,49.89
2023-04-08T18:18:54.111Z,50.16
2023-04-08T18:21:22.139Z,50.02
2023-04-08T18:23:49.853Z,50.33
2023-04-08T18:26:17.286Z,50.68
2023-04-08T18:28:44.414Z,51.08
2023-04-08T18:31:11.390Z,51.12
2023-04-08T18:33:39.256Z,51.47
2023-04-08T18:36:10.563Z,51.58
2023-04-08T18:38:38.168Z,51.67
2023-04-08T18:41:05.910Z,52.08
2023-04-08T18:43:33.329Z,51.78
2023-04-08T18:46:00.474Z,52.16
2023-04-08T18:48:27.490Z,52.09
2023-04-08T18:50:54.621Z,52.65
2023-04-08T18:53:22.752Z,53.17
2023-04-08T18:55:51.296Z,52.99
2023-04-08T18:58:18.344Z,53.09
2023-04-08T19:00:45.564Z,53.27
2023-04-08T19:03:12.761Z,54.19
2023-04-08T19:05:39.860Z,54.22
2023-04-08T19:08:06.802Z,54.32
2023-04-08T19:10:33.897Z,54.19
2023-04-08T19:13:01.397Z,54.56
2023-04-08T19:15:31.143Z,55.04
2023-04-08T19:17:59.076Z,54.72
2023-04-08T19:20:27.322Z,54.94
2023-04-08T19:22:55.964Z,54.98
2023-04-08T19:25:22.987Z,56.09
2023-04-08T19:27:49.953Z,55.85
2023-04-08T19:30:16.863Z,56.05
2023-04-08T19:32:44.001Z,56.12
2023-04-08T19:35:14.012Z,56.45
2023-04-08T19:37:41.172Z,56.46
2023-04-08T19:40:08.653Z,56.61
2023-04-08T19:42:36.476Z,57.20
2023-04-08T19:45:03.873Z,57.36
2023-04-08T19:47:30.933Z,57.72
2023-04-08T19:49:58.422Z,57.70
2023-04-08T19:52:25.833Z,57.85
2023-04-08T19:54:53.289Z,58.18
2023-04-08T19:57:20.675Z,58.36
2023-04-08T19:59:50.604Z,58.60
2023-04-08T20:02:17.760Z,58.69
2023-04-08T20:04:45.669Z,58.61
2023-04-08T20:07:13.305Z,58.70
2023-04-08T20:09:40.572Z,59.03
2023-04-08T20:12:07.495Z,59.06
2023-04-08T20:14:35.969Z,59.48
2023-04-08T20:17:03.210Z,59.53
2023-04-08T20:19:30.558Z,59.73
2023-04-08T20:21:57.827Z,60.05
2023-04-08T20:24:24.865Z,60.07
2023-04-08T20:26:52.563Z,60.32
2023-04-08T20:29:19.578Z,60.37
2023-04-08T20:31:46.994Z,60.61
2023-04-08T20:34:14.104Z,60.76
2023-04-08T20:36:41.252Z,60.64
2023-04-08T20:39:12.018Z,61.05
2023-04-08T20:41:39.041Z,61.33
2023-04-08T20:44:10.653Z,61.32
2023-04-08T20:46:38.192Z,61.43
2023-04-08T20:49:05.531Z,61.43
2023-04-08T20:51:35.232Z,61.62
2023-04-08T20:54:02.473Z,61.65
2023-04-08T20:56:29.690Z,61.75
2023-04-08T20:58:59.692Z,61.84
2023-04-08T21:01:27.494Z,62.16
2023-04-08T21:03:54.836Z,62.18
2023-04-08T21:06:22.136Z,62.54
2023-04-08T21:08:49.783Z,62.52
2023-04-08T21:11:17.184Z,62.58
2023-04-08T21:13:45.536Z,63.04
2023-04-08T21:16:14.354Z,63.04
2023-04-08T21:18:41.336Z,63.28
2023-04-08T21:21:10.066Z,63.38
2023-04-08T21:23:37.064Z,64.05
2023-04-08T21:26:04.151Z,65.20
2023-04-08T21:28:31.353Z,65.51
2023-04-08T21:31:08.098Z,65.44
2023-04-08T21:33:35.176Z,64.78
2023-04-08T21:36:02.404Z,64.80
2023-04-08T21:38:29.426Z,65.68
2023-04-08T21:40:56.421Z,66.18
2023-04-08T21:43:23.440Z,66.51
2023-04-08T21:45:50.386Z,66.04
2023-04-08T21:48:17.355Z,65.52
2023-04-08T21:50:45.648Z,65.85
2023-04-08T21:53:12.641Z,65.71
2023-04-08T21:55:39.502Z,66.42
2023-04-08T21:58:06.487Z,67.45
2023-04-08T22:00:33.552Z,67.74
2023-04-08T22:03:00.650Z,67.51
2023-04-08T22:05:27.793Z,67.49
2023-04-08T22:07:55.035Z,67.75
2023-04-08T22:10:22.041Z,66.94
2023-04-08T22:12:48.967Z,66.68
2023-04-08T22:15:15.853Z,66.09
2023-04-08T22:17:42.981Z,66.80
2023-04-08T22:20:10.634Z,66.90
2023-04-08T22:22:37.726Z,67.05
2023-04-08T22:25:05.352Z,67.04
2023-04-08T22:27:32.359Z,67.04
2023-04-08T22:29:59.366Z,67.18
2023-04-08T22:32:26.558Z,67.83
2023-04-08T22:34:53.436Z,68.10
2023-04-08T22:37:20.438Z,68.04
2023-04-08T22:39:47.457Z,67.56
2023-04-08T22:42:14.395Z,68.02
2023-04-08T22:44:41.436Z,68.79
2023-04-08T22:47:08.302Z,69.08
2023-04-08T22:49:35.596Z,68.66
2023-04-08T22:52:02.523Z,68.54
2023-04-08T22:54:29.421Z,68.50
2023-04-08T22:56:56.677Z,68.80
2023-04-08T22:59:23.663Z,69.55
2023-04-08T23:01:50.818Z,69.76
2023-04-08T23:04:17.897Z,69.52
2023-04-08T23:06:44.861Z,69.58
2023-04-08T23:09:11.860Z,69.78
2023-04-08T23:11:38.883Z,70.42
2023-04-08T23:14:05.954Z,70.87
2023-04-08T23:16:33.039Z,71.48
2023-04-08T23:19:00.010Z,71.97
2023-04-08T23:21:27.124Z,71.84
2023-04-08T23:23:54.101Z,71.77
2023-04-08T23:26:21.319Z,72.13
2023-04-08T23:28:48.246Z,72.04
2023-04-08T23:31:15.450Z,72.32
2023-04-08T23:33:42.516Z,71.77
2023-04-08T23:36:12.858Z,71.47
2023-04-08T23:38:39.935Z,71.91
2023-04-08T23:41:07.037Z,71.58
2023-04-08T23:43:34.309Z,72.26
2023-04-08T23:46:01.291Z,72.73
2023-04-08T23:48:28.204Z,73.55
2023-04-08T23:50:55.287Z,74.03
2023-04-08T23:53:22.239Z,74.14
2023-04-08T23:55:49.162Z,74.69
2023-04-08T23:58:16.321Z,75.00
